createdAt,value
2017-08-30T00:01:10.231Z,25.30
2017-08-30T00:03:37.665Z,23.07
2017-08-30T00:06:06.105Z,26.33
2017-08-30T00:08:33.545Z,31.27
2017-08-30T00:11:00.979Z,27.60
2017-08-30T00:13:28.436Z,25.97
2017-08-30T00:15:55.856Z,27.57
2017-08-30T00:18:23.293Z,23.20
2017-08-30T00:20:50.721Z,24.57
2017-08-30T00:23:18.164Z,25.60
2017-08-30T00:25:57.322Z,24.17
2017-08-30T00:28:24.759Z,26.23
2017-08-30T00:30:52.198Z,28.40
2017-08-30T00:33:20.627Z,25.27
2017-08-30T00:35:48.061Z,25.70
2017-08-30T00:38:15.493Z,26.33
2017-08-30T00:40:42.928Z,23.53
2017-08-30T00:43:10.366Z,24.33
2017-08-30T00:45:37.808Z,28.73
2017-08-30T00:48:05.239Z,25.83
2017-08-30T00:50:32.676Z,24.83
2017-08-30T00:53:00.108Z,25.97
2017-08-30T00:55:27.546Z,26.83
2017-08-30T00:57:55.802Z,25.33
2017-08-30T01:00:23.240Z,29.40
2017-08-30T01:02:50.671Z,27.20
2017-08-30T01:05:18.116Z,27.50
2017-08-30T01:07:45.539Z,25.43
2017-08-30T01:10:12.976Z,28.00
2017-08-30T01:12:40.404Z,27.80
2017-08-30T01:15:07.848Z,30.57
2017-08-30T01:17:35.275Z,26.50
2017-08-30T01:20:02.712Z,27.10
2017-08-30T01:22:30.144Z,30.80
2017-08-30T01:24:57.585Z,31.67
2017-08-30T01:27:25.016Z,27.13
2017-08-30T01:29:52.446Z,27.07
2017-08-30T01:32:19.882Z,29.70
2017-08-30T01:34:47.308Z,22.40
2017-08-30T01:37:14.749Z,31.43
2017-08-30T01:39:42.178Z,24.63
2017-08-30T01:42:09.741Z,21.27
2017-08-30T01:44:37.168Z,27.27
2017-08-30T01:47:04.608Z,27.20
2017-08-30T01:49:45.684Z,27.13
2017-08-30T01:52:13.141Z,27.83
2017-08-30T01:54:40.577Z,24.77
2017-08-30T01:57:11.684Z,32.80
2017-08-30T01:59:39.121Z,29.80
2017-08-30T02:02:06.552Z,26.50
2017-08-30T02:04:33.985Z,27.73
2017-08-30T02:07:01.426Z,25.30
2017-08-30T02:09:28.855Z,32.47
2017-08-30T02:11:56.325Z,30.00
2017-08-30T02:14:23.756Z,27.00
2017-08-30T02:16:51.195Z,27.97
2017-08-30T02:19:18.633Z,28.57
2017-08-30T02:21:46.073Z,32.10
2017-08-30T02:24:15.273Z,30.00
2017-08-30T02:26:42.718Z,34.10
2017-08-30T02:29:10.153Z,31.53
2017-08-30T02:31:37.592Z,32.43
2017-08-30T02:34:05.037Z,28.70
2017-08-30T02:36:32.497Z,26.77
2017-08-30T02:38:59.929Z,33.53
2017-08-30T02:41:28.366Z,31.53
2017-08-30T02:43:55.809Z,29.67
2017-08-30T02:46:23.269Z,34.30
2017-08-30T02:48:50.714Z,30.23
2017-08-30T02:51:18.145Z,32.47
2017-08-30T02:53:45.592Z,30.40
2017-08-30T02:56:13.113Z,36.10
2017-08-30T02:58:40.552Z,31.00
2017-08-30T03:01:07.982Z,31.33
2017-08-30T03:03:35.430Z,28.87
2017-08-30T03:06:06.628Z,28.10
2017-08-30T03:08:34.075Z,41.40
2017-08-30T03:11:01.508Z,32.80
2017-08-30T03:13:28.948Z,27.20
2017-08-30T03:15:56.380Z,34.00
2017-08-30T03:18:23.815Z,29.50
2017-08-30T03:20:51.258Z,28.43
2017-08-30T03:23:18.696Z,31.30
2017-08-30T03:25:46.131Z,28.93
2017-08-30T03:28:13.573Z,35.47
2017-08-30T03:30:41.010Z,28.33
2017-08-30T03:33:08.456Z,27.60
2017-08-30T03:35:36.917Z,34.20
2017-08-30T03:38:04.369Z,27.00
2017-08-30T03:40:31.806Z,29.43
2017-08-30T03:42:59.238Z,24.50
2017-08-30T03:45:26.671Z,31.10
2017-08-30T03:47:54.112Z,28.97
2017-08-30T03:50:21.553Z,26.63
2017-08-30T03:52:48.984Z,31.43
2017-08-30T03:55:16.502Z,29.63
2017-08-30T03:57:43.933Z,26.50
2017-08-30T04:00:11.368Z,30.60
2017-08-30T04:02:38.804Z,31.63
2017-08-30T04:05:06.247Z,27.27
2017-08-30T04:07:33.684Z,33.93
2017-08-30T04:10:01.138Z,30.67
2017-08-30T04:12:28.565Z,29.70
2017-08-30T04:14:56.013Z,27.63
2017-08-30T04:17:23.440Z,28.90
2017-08-30T04:19:50.888Z,29.07
2017-08-30T04:22:18.313Z,27.67
2017-08-30T04:24:45.752Z,32.70
2017-08-30T04:27:13.190Z,28.97
2017-08-30T04:29:40.647Z,33.03
2017-08-30T04:32:08.118Z,30.70
2017-08-30T04:34:35.554Z,28.93
2017-08-30T04:37:03.104Z,33.83
2017-08-30T04:39:30.544Z,29.83
2017-08-30T04:41:58.057Z,28.10
2017-08-30T04:44:25.489Z,27.87
2017-08-30T04:46:52.982Z,28.67
2017-08-30T04:49:20.408Z,27.87
2017-08-30T04:51:47.849Z,29.83
2017-08-30T04:54:15.285Z,25.87
2017-08-30T04:56:42.809Z,31.90
2017-08-30T04:59:10.236Z,27.43
2017-08-30T05:01:37.721Z,29.97
2017-08-30T05:04:05.149Z,30.20
2017-08-30T05:06:34.584Z,28.50
2017-08-30T05:09:02.020Z,24.13
2017-08-30T05:11:29.497Z,25.60
2017-08-30T05:13:56.936Z,28.20
2017-08-30T05:16:24.370Z,25.83
2017-08-30T05:18:51.849Z,25.93
2017-08-30T05:21:19.289Z,25.30
2017-08-30T05:23:46.726Z,29.17
2017-08-30T05:26:14.177Z,30.60
2017-08-30T05:28:41.612Z,25.57
2017-08-30T05:31:09.056Z,30.57
2017-08-30T05:33:36.488Z,23.10
2017-08-30T05:36:03.938Z,24.17
2017-08-30T05:38:31.373Z,30.40
2017-08-30T05:40:58.812Z,27.70
2017-08-30T05:43:26.270Z,26.23
2017-08-30T05:45:53.709Z,24.33
2017-08-30T05:48:21.149Z,30.53
2017-08-30T05:50:48.598Z,27.83
2017-08-30T05:53:16.045Z,25.93
2017-08-30T05:55:43.507Z,23.60
2017-08-30T05:58:10.992Z,28.60
2017-08-30T06:00:40.900Z,29.57
2017-08-30T06:03:08.342Z,28.27
2017-08-30T06:05:35.774Z,26.47
2017-08-30T06:08:05.204Z,24.93
2017-08-30T06:10:32.637Z,25.20
2017-08-30T06:13:00.086Z,28.20
2017-08-30T06:15:27.520Z,23.80
2017-08-30T06:17:54.983Z,24.03
2017-08-30T06:20:22.427Z,22.43
2017-08-30T06:22:49.869Z,26.50
2017-08-30T06:25:17.300Z,22.20
2017-08-30T06:27:44.744Z,24.60
2017-08-30T06:30:13.137Z,28.30
2017-08-30T06:32:40.573Z,29.23
2017-08-30T06:35:08.009Z,24.13
2017-08-30T06:37:35.477Z,21.80
2017-08-30T06:40:02.926Z,15.93
2017-08-30T06:42:30.365Z,18.00
2017-08-30T06:44:58.829Z,18.60
2017-08-30T06:47:26.274Z,19.40
2017-08-30T06:49:53.724Z,18.73
2017-08-30T06:52:21.159Z,19.00
2017-08-30T06:54:48.617Z,19.27
2017-08-30T06:57:16.057Z,19.93
2017-08-30T06:59:44.488Z,18.90
2017-08-30T07:02:13.971Z,17.80
2017-08-30T07:04:43.387Z,17.60
2017-08-30T07:07:10.830Z,18.70
2017-08-30T07:09:46.579Z,17.70
2017-08-30T07:12:14.013Z,16.93
2017-08-30T07:14:45.617Z,20.00
2017-08-30T07:17:13.165Z,18.40
2017-08-30T07:19:40.631Z,19.17
2017-08-30T07:22:08.074Z,20.13
2017-08-30T07:24:35.562Z,18.70
2017-08-30T07:27:07.689Z,15.60
2017-08-30T07:29:35.137Z,17.40
2017-08-30T07:32:02.568Z,16.20
2017-08-30T07:34:33.637Z,18.73
2017-08-30T07:37:01.080Z,16.67
2017-08-30T07:39:28.523Z,16.47
2017-08-30T07:42:03.355Z,19.57
2017-08-30T07:44:30.796Z,19.07
2017-08-30T07:46:58.234Z,19.40
2017-08-30T07:49:25.685Z,16.07
2017-08-30T07:51:53.120Z,19.03
2017-08-30T07:54:20.564Z,17.50
2017-08-30T07:56:47.992Z,16.70
2017-08-30T07:59:15.441Z,15.07
2017-08-30T08:01:55.872Z,14.80
2017-08-30T08:04:23.317Z,16.17
2017-08-30T08:06:50.749Z,17.37
2017-08-30T08:09:18.184Z,14.60
2017-08-30T08:11:45.645Z,14.80
2017-08-30T08:14:13.093Z,14.43
2017-08-30T08:16:40.535Z,14.70
2017-08-30T08:19:07.977Z,17.77
2017-08-30T08:21:35.441Z,20.83
2017-08-30T08:24:02.870Z,14.60
2017-08-30T08:26:30.312Z,14.37
2017-08-30T08:28:57.740Z,22.27
2017-08-30T08:31:25.184Z,21.03
2017-08-30T08:33:52.627Z,23.20
2017-08-30T08:36:20.063Z,21.07
2017-08-30T08:38:47.502Z,21.60
2017-08-30T08:41:14.963Z,22.30
2017-08-30T08:43:42.400Z,20.70
2017-08-30T08:46:09.864Z,20.57
2017-08-30T08:48:37.293Z,20.70
2017-08-30T08:51:04.741Z,25.53
2017-08-30T08:53:32.178Z,20.07
2017-08-30T08:55:59.620Z,24.90
2017-08-30T08:58:27.057Z,20.20
2017-08-30T09:00:54.506Z,26.50
2017-08-30T09:03:21.944Z,25.47
2017-08-30T09:05:49.377Z,23.27
2017-08-30T09:08:16.834Z,17.67
2017-08-30T09:10:44.279Z,28.13
2017-08-30T09:13:11.732Z,17.20
2017-08-30T09:15:40.174Z,16.97
2017-08-30T09:18:07.612Z,15.40
2017-08-30T09:20:35.052Z,18.60
2017-08-30T09:23:02.502Z,18.50
2017-08-30T09:25:29.928Z,16.30
2017-08-30T09:27:57.364Z,17.40
2017-08-30T09:30:24.913Z,17.90
2017-08-30T09:32:52.350Z,17.50
2017-08-30T09:35:19.788Z,19.97
2017-08-30T09:37:47.301Z,20.20
2017-08-30T09:40:14.747Z,21.00
2017-08-30T09:42:42.188Z,17.40
2017-08-30T09:45:11.705Z,19.80
2017-08-30T09:47:39.146Z,17.40
2017-08-30T09:50:06.586Z,18.03
2017-08-30T09:52:34.033Z,22.13
2017-08-30T09:55:01.470Z,18.10
2017-08-30T09:57:28.908Z,18.00
2017-08-30T09:59:56.341Z,17.77
2017-08-30T10:02:23.784Z,19.57
2017-08-30T10:04:53.296Z,15.33
2017-08-30T10:07:20.728Z,18.77
2017-08-30T10:09:48.241Z,17.17
2017-08-30T10:12:15.670Z,18.13
2017-08-30T10:14:43.109Z,16.20
2017-08-30T10:17:10.549Z,18.07
2017-08-30T10:19:37.996Z,18.80
2017-08-30T10:22:05.505Z,19.40
2017-08-30T10:24:32.941Z,15.10
2017-08-30T10:27:00.376Z,13.93
2017-08-30T10:29:27.828Z,17.30
2017-08-30T10:31:55.260Z,21.37
2017-08-30T10:34:22.709Z,16.00
2017-08-30T10:36:50.142Z,17.20
2017-08-30T10:39:17.779Z,16.93
2017-08-30T10:41:45.312Z,19.20
2017-08-30T10:44:12.832Z,21.33
2017-08-30T10:46:40.271Z,17.73
2017-08-30T10:49:07.715Z,16.33
2017-08-30T10:51:35.153Z,18.83
2017-08-30T10:54:02.603Z,17.40
2017-08-30T10:56:30.032Z,14.10
2017-08-30T10:58:57.486Z,12.03
2017-08-30T11:01:24.929Z,18.00
2017-08-30T11:03:52.384Z,13.70
2017-08-30T11:06:19.820Z,23.10
2017-08-30T11:08:47.259Z,14.80
2017-08-30T11:11:14.694Z,12.23
2017-08-30T11:13:42.155Z,15.17
2017-08-30T11:16:09.596Z,16.93
2017-08-30T11:18:37.023Z,11.73
2017-08-30T11:21:04.468Z,13.90
2017-08-30T11:23:31.911Z,13.67
2017-08-30T11:25:59.348Z,16.37
2017-08-30T11:28:26.798Z,15.70
2017-08-30T11:30:54.300Z,21.23
2017-08-30T11:33:21.753Z,16.30
2017-08-30T11:35:49.184Z,18.70
2017-08-30T11:38:16.623Z,15.10
2017-08-30T11:40:44.063Z,14.10
2017-08-30T11:43:11.502Z,14.30
2017-08-30T11:45:38.941Z,18.03
2017-08-30T11:48:06.372Z,17.17
2017-08-30T11:50:33.816Z,13.87
2017-08-30T11:53:01.253Z,14.27
2017-08-30T11:55:28.693Z,13.80
2017-08-30T11:57:56.120Z,12.37
2017-08-30T12:00:23.580Z,17.63
2017-08-30T12:02:50.988Z,15.57
2017-08-30T12:05:18.485Z,19.20
2017-08-30T12:07:45.920Z,15.27
2017-08-30T12:10:13.357Z,13.10
2017-08-30T12:12:40.796Z,13.57
2017-08-30T12:15:08.225Z,13.00
2017-08-30T12:17:39.794Z,16.00
2017-08-30T12:20:07.226Z,13.57
2017-08-30T12:22:34.657Z,17.93
2017-08-30T12:25:02.093Z,17.13
2017-08-30T12:27:29.537Z,11.60
2017-08-30T12:29:56.965Z,15.10
2017-08-30T12:32:24.405Z,17.67
2017-08-30T12:34:51.832Z,12.10
2017-08-30T12:37:24.868Z,12.63
2017-08-30T12:39:52.302Z,14.80
2017-08-30T12:42:19.732Z,17.00
2017-08-30T12:44:47.168Z,9.90
2017-08-30T12:47:14.605Z,13.77
2017-08-30T12:49:42.033Z,14.77
2017-08-30T12:52:09.469Z,14.27
2017-08-30T12:54:36.900Z,11.33
2017-08-30T12:57:04.336Z,19.10
2017-08-30T12:59:31.772Z,11.70
2017-08-30T13:01:59.208Z,14.93
2017-08-30T13:04:26.641Z,11.90
2017-08-30T13:06:54.071Z,13.13
2017-08-30T13:09:21.496Z,12.53
2017-08-30T13:11:48.942Z,18.83
2017-08-30T13:14:16.375Z,13.83
2017-08-30T13:16:43.804Z,13.10
2017-08-30T13:19:11.248Z,10.63
2017-08-30T13:21:38.681Z,13.67
2017-08-30T13:24:06.114Z,12.70
2017-08-30T13:26:33.540Z,9.30
2017-08-30T13:29:00.990Z,10.40
2017-08-30T13:31:28.421Z,12.77
2017-08-30T13:33:55.856Z,11.23
2017-08-30T13:36:23.285Z,14.87
2017-08-30T13:38:50.769Z,9.13
2017-08-30T13:41:18.201Z,9.87
2017-08-30T13:43:45.631Z,13.40
2017-08-30T13:46:13.066Z,12.43
2017-08-30T13:48:40.505Z,11.20
2017-08-30T13:51:08.146Z,13.63
2017-08-30T13:53:35.583Z,11.13
2017-08-30T13:56:03.012Z,9.37
2017-08-30T13:58:30.453Z,13.63
2017-08-30T14:00:57.880Z,10.80
2017-08-30T14:03:25.329Z,10.10
2017-08-30T14:05:52.757Z,9.93
2017-08-30T14:08:20.195Z,16.10
2017-08-30T14:10:47.640Z,10.20
2017-08-30T14:13:15.060Z,6.63
2017-08-30T14:15:42.491Z,7.90
2017-08-30T14:18:09.939Z,11.10
2017-08-30T14:20:37.377Z,16.77
2017-08-30T14:23:04.804Z,7.90
2017-08-30T14:25:32.237Z,12.23
2017-08-30T14:27:59.665Z,11.83
2017-08-30T14:30:27.103Z,11.57
2017-08-30T14:32:54.537Z,14.57
2017-08-30T14:35:21.977Z,11.90
2017-08-30T14:37:49.405Z,10.93
2017-08-30T14:40:16.844Z,8.20
2017-08-30T14:42:44.268Z,12.60
2017-08-30T14:45:11.704Z,10.50
2017-08-30T14:47:39.136Z,12.50
2017-08-30T14:50:06.578Z,12.53
2017-08-30T14:52:36.010Z,13.47
2017-08-30T14:55:03.449Z,9.30
2017-08-30T14:57:30.876Z,15.80
2017-08-30T14:59:59.317Z,12.90
2017-08-30T15:02:41.031Z,9.07
2017-08-30T15:05:08.699Z,9.07
2017-08-30T15:07:39.224Z,12.20
2017-08-30T15:10:06.664Z,14.33
2017-08-30T15:12:36.229Z,7.60
2017-08-30T15:15:03.660Z,12.03
2017-08-30T15:17:31.092Z,13.03
2017-08-30T15:19:58.511Z,7.93
2017-08-30T15:22:27.932Z,13.00
2017-08-30T15:24:55.360Z,11.53
2017-08-30T15:27:24.799Z,12.73
2017-08-30T15:29:52.233Z,8.97
2017-08-30T15:32:19.674Z,10.80
2017-08-30T15:34:47.117Z,10.37
2017-08-30T15:37:14.554Z,6.83
2017-08-30T15:39:41.981Z,7.40
2017-08-30T15:42:09.427Z,9.03
2017-08-30T15:44:39.183Z,11.20
2017-08-30T15:47:06.616Z,12.70
2017-08-30T15:49:34.897Z,13.33
2017-08-30T15:52:02.341Z,13.13
2017-08-30T15:54:29.769Z,8.83
2017-08-30T15:56:57.216Z,16.13
2017-08-30T15:59:24.646Z,15.20
2017-08-30T16:01:52.080Z,11.97
2017-08-30T16:04:19.513Z,13.63
2017-08-30T16:06:46.941Z,9.67
2017-08-30T16:09:15.733Z,7.80
2017-08-30T16:11:43.218Z,10.87
2017-08-30T16:14:11.196Z,8.67
2017-08-30T16:16:38.742Z,9.00
2017-08-30T16:19:06.217Z,14.43
2017-08-30T16:21:33.668Z,24.70
2017-08-30T16:24:01.116Z,7.17
2017-08-30T16:26:28.537Z,14.73
2017-08-30T16:28:55.980Z,14.00
2017-08-30T16:31:23.421Z,11.73
2017-08-30T16:33:50.957Z,13.03
2017-08-30T16:36:18.396Z,10.50
2017-08-30T16:38:45.832Z,10.00
2017-08-30T16:41:21.787Z,8.63
2017-08-30T16:43:49.221Z,9.83
2017-08-30T16:46:16.681Z,12.77
2017-08-30T16:48:45.104Z,14.40
2017-08-30T16:51:12.533Z,12.47
2017-08-30T16:53:39.992Z,12.53
2017-08-30T16:56:07.422Z,10.40
2017-08-30T16:58:35.266Z,13.30
2017-08-30T17:01:02.689Z,6.80
2017-08-30T17:03:30.133Z,14.00
2017-08-30T17:05:57.601Z,11.27
2017-08-30T17:08:25.036Z,13.63
2017-08-30T17:10:52.513Z,15.40
2017-08-30T17:13:19.960Z,14.20
2017-08-30T17:15:47.404Z,11.93
2017-08-30T17:18:14.854Z,18.07
2017-08-30T17:20:42.341Z,7.43
2017-08-30T17:23:09.780Z,12.90
2017-08-30T17:25:37.223Z,10.03
2017-08-30T17:28:04.668Z,14.07
2017-08-30T17:30:32.121Z,11.80
2017-08-30T17:33:05.477Z,14.50
2017-08-30T17:35:32.916Z,9.03
2017-08-30T17:38:00.341Z,9.70
2017-08-30T17:40:27.795Z,16.20
2017-08-30T17:42:55.242Z,11.83
2017-08-30T17:45:22.669Z,14.43
2017-08-30T17:47:50.109Z,13.73
2017-08-30T17:50:17.570Z,13.07
2017-08-30T17:52:45.001Z,19.40
2017-08-30T17:55:12.448Z,13.20
2017-08-30T17:57:39.957Z,15.17
2017-08-30T18:00:07.405Z,14.13
2017-08-30T18:02:34.833Z,14.83
2017-08-30T18:05:02.287Z,14.23
2017-08-30T18:07:29.729Z,14.60
2017-08-30T18:09:57.160Z,10.63
2017-08-30T18:12:24.592Z,11.83
2017-08-30T18:14:52.030Z,11.00
2017-08-30T18:17:19.488Z,15.03
2017-08-30T18:19:46.942Z,20.30
2017-08-30T18:22:14.368Z,13.77
2017-08-30T18:24:41.805Z,14.67
2017-08-30T18:27:09.249Z,9.97
2017-08-30T18:29:36.687Z,10.40
2017-08-30T18:32:04.136Z,7.90
2017-08-30T18:34:31.569Z,14.90
2017-08-30T18:36:59.009Z,11.70
2017-08-30T18:39:26.447Z,12.13
2017-08-30T18:41:53.893Z,16.43
2017-08-30T18:44:21.325Z,10.13
2017-08-30T18:46:48.777Z,13.50
2017-08-30T18:49:16.203Z,17.60
2017-08-30T18:51:43.697Z,11.97
2017-08-30T18:54:11.133Z,14.87
2017-08-30T18:56:38.573Z,16.53
2017-08-30T18:59:06.005Z,15.93
2017-08-30T19:01:33.457Z,10.77
2017-08-30T19:04:00.907Z,12.97
2017-08-30T19:06:28.344Z,17.40
2017-08-30T19:08:55.780Z,15.03
2017-08-30T19:11:23.225Z,9.97
2017-08-30T19:13:50.644Z,10.13
2017-08-30T19:16:18.084Z,10.67
2017-08-30T19:18:46.814Z,14.00
2017-08-30T19:21:15.972Z,18.53
2017-08-30T19:23:45.149Z,8.90
2017-08-30T19:26:13.343Z,9.00
2017-08-30T19:28:42.582Z,16.70
2017-08-30T19:31:11.779Z,11.47
2017-08-30T19:33:40.656Z,23.80
2017-08-30T19:36:10.825Z,9.67
2017-08-30T19:38:40.946Z,13.23
2017-08-30T19:41:10.885Z,7.30
2017-08-30T19:43:41.312Z,15.10
2017-08-30T19:46:11.428Z,11.20
2017-08-30T19:48:39.380Z,10.77
2017-08-30T19:51:08.735Z,9.60
2017-08-30T19:53:37.468Z,13.53
2017-08-30T19:56:07.818Z,7.47
2017-08-30T19:58:35.862Z,13.87
2017-08-30T20:01:03.995Z,15.13
2017-08-30T20:03:32.904Z,7.80
2017-08-30T20:06:01.459Z,9.10
2017-08-30T20:08:29.735Z,14.17
2017-08-30T20:10:57.912Z,21.33
2017-08-30T20:13:27.571Z,11.73
2017-08-30T20:15:58.937Z,6.40
2017-08-30T20:18:28.263Z,13.90
2017-08-30T20:20:56.744Z,14.17
2017-08-30T20:23:25.027Z,6.60
2017-08-30T20:25:53.807Z,8.77
2017-08-30T20:28:22.082Z,8.90
2017-08-30T20:30:50.408Z,10.07
2017-08-30T20:33:19.431Z,8.60
2017-08-30T20:35:47.830Z,10.47
2017-08-30T20:38:20.176Z,9.83
2017-08-30T20:40:48.835Z,8.90
2017-08-30T20:43:17.477Z,9.27
2017-08-30T20:45:46.346Z,18.80
2017-08-30T20:48:17.906Z,10.30
2017-08-30T20:50:48.081Z,11.43
2017-08-30T20:53:16.927Z,6.77
2017-08-30T20:55:45.174Z,15.50
2017-08-30T20:58:13.573Z,12.37
2017-08-30T21:00:43.588Z,8.47
2017-08-30T21:03:12.360Z,11.03
2017-08-30T21:05:40.754Z,11.80
2017-08-30T21:08:09.644Z,8.27
2017-08-30T21:10:38.586Z,8.80
2017-08-30T21:13:06.912Z,8.60
2017-08-30T21:15:35.289Z,7.20
2017-08-30T21:18:03.695Z,4.77
2017-08-30T21:20:32.039Z,11.00
2017-08-30T21:23:02.164Z,9.27
2017-08-30T21:25:31.519Z,8.33
2017-08-30T21:28:00.354Z,7.93
2017-08-30T21:30:29.040Z,7.10
2017-08-30T21:32:59.006Z,12.73
2017-08-30T21:35:28.762Z,15.23
2017-08-30T21:37:58.014Z,18.00
2017-08-30T21:40:28.641Z,12.97
2017-08-30T21:43:11.716Z,8.80
2017-08-30T21:48:25.884Z,11.40
2017-08-30T21:50:54.362Z,6.73
2017-08-30T21:53:22.689Z,8.37
2017-08-30T21:55:52.091Z,6.70
2017-08-30T21:58:20.264Z,9.83
2017-08-30T22:00:50.383Z,10.63
2017-08-30T22:03:22.046Z,6.53
2017-08-30T22:05:52.062Z,10.60
2017-08-30T22:08:22.378Z,4.87
2017-08-30T22:10:52.087Z,11.83
2017-08-30T22:13:21.181Z,9.40
2017-08-30T22:15:49.003Z,6.90
2017-08-30T22:18:18.508Z,8.57
2017-08-30T22:20:46.784Z,8.00
2017-08-30T22:23:15.265Z,4.80
2017-08-30T22:25:43.584Z,6.10
2017-08-30T22:28:12.022Z,12.03
2017-08-30T22:30:40.714Z,4.57
2017-08-30T22:33:14.514Z,7.00
2017-08-30T22:35:44.469Z,7.13
2017-08-30T22:38:12.910Z,5.13
2017-08-30T22:40:40.980Z,5.90
2017-08-30T22:43:09.974Z,8.53
2017-08-30T22:45:39.581Z,6.70
2017-08-30T22:48:10.045Z,6.30
2017-08-30T22:50:39.349Z,7.60
2017-08-30T22:53:08.766Z,7.83
2017-08-30T22:55:40.913Z,7.10
2017-08-30T22:58:09.394Z,8.93
2017-08-30T23:00:37.649Z,9.70
2017-08-30T23:03:06.681Z,5.93
2017-08-30T23:05:35.263Z,7.13
2017-08-30T23:08:05.954Z,9.03
2017-08-30T23:10:34.356Z,7.50
2017-08-30T23:13:02.853Z,9.60
2017-08-30T23:15:35.740Z,5.97
2017-08-30T23:18:04.320Z,8.37
2017-08-30T23:20:32.646Z,7.87
2017-08-30T23:23:01.075Z,7.80
2017-08-30T23:25:31.720Z,9.70
2017-08-30T23:28:00.903Z,5.63
2017-08-30T23:30:31.534Z,3.97
2017-08-30T23:33:01.038Z,6.93
2017-08-30T23:35:29.210Z,3.93
2017-08-30T23:37:58.511Z,11.30
2017-08-30T23:40:27.604Z,7.73
2017-08-30T23:42:56.961Z,5.77
2017-08-30T23:45:26.204Z,10.07
2017-08-30T23:47:54.566Z,9.30
2017-08-30T23:50:23.984Z,8.00
2017-08-30T23:52:55.970Z,6.20
2017-08-30T23:55:26.099Z,5.20
2017-08-30T23:57:54.544Z,12.53
